Time;durP1;ratioP1;P1;durP2;ratioP2;P2;SDS_P1;SDS_P2;PMS_P1;PMS_P2;Temp;Humidity;BMP_temperature;BMP_pressure;BME280_temperature;BME280_humidity;BME280_pressure;Samples;Min_cycle;Max_cycle;Signal;HPM_P1;HPM_P2
2024/01/18 00:00:29;;;;;;;1.27;0.50;;;10.60;99.90;;;;;;4963848;28;20114;-77
2024/01/18 00:03:32;;;;;;;1.25;0.30;;;10.60;99.90;;;;;;4964078;29;20019;-76
2024/01/18 00:06:35;;;;;;;1.13;0.32;;;10.50;99.90;;;;;;4963758;29;20046;-75
2024/01/18 00:09:13;;;;;;;1.55;0.60;;;10.50;99.90;;;;;;4962592;29;20083;-77
2024/01/18 00:11:49;;;;;;;0.77;0.30;;;10.50;99.90;;;;;;4975029;28;20049;-75
2024/01/18 00:14:28;;;;;;;1.10;0.32;;;10.40;99.90;;;;;;4965979;28;20038;-76
2024/01/18 00:16:53;;;;;;;1.55;0.30;;;10.40;99.90;;;;;;4983273;28;20233;-75
2024/01/18 00:19:22;;;;;;;1.23;0.30;;;10.40;99.90;;;;;;4950298;28;20048;-76
2024/01/18 00:21:48;;;;;;;;;;;10.30;99.90;;;;;;4983208;28;20073;-75
2024/01/18 00:24:16;;;;;;;0.98;0.40;;;10.40;99.90;;;;;;4983258;28;19949;-76
2024/01/18 00:27:00;;;;;;;1.17;0.30;;;10.40;99.90;;;;;;4949629;28;20371;-76
2024/01/18 00:29:26;;;;;;;1.50;0.45;;;10.30;99.90;;;;;;4962912;28;20035;-76
2024/01/18 00:31:57;;;;;;;1.10;0.40;;;10.30;99.90;;;;;;4982886;28;20058;-77
2024/01/18 00:34:35;;;;;;;1.65;0.32;;;10.30;99.90;;;;;;4966218;28;20023;-76
2024/01/18 00:37:08;;;;;;;1.00;0.30;;;10.30;99.90;;;;;;4983135;28;20039;-76
2024/01/18 00:39:41;;;;;;;2.17;0.30;;;10.40;99.90;;;;;;4950415;28;20371;-75
2024/01/18 00:42:07;;;;;;;1.20;0.40;;;10.30;99.90;;;;;;4981994;28;20114;-75
2024/01/18 00:44:35;;;;;;;1.27;0.30;;;10.30;99.90;;;;;;4965030;28;20031;-77
2024/01/18 00:47:07;;;;;;;2.22;0.30;;;10.30;99.90;;;;;;4968320;28;20297;-76
2024/01/18 00:49:46;;;;;;;;;;;;;;;;;;;;;
2024/01/18 00:52:21;;;;;;;1.17;0.30;;;10.30;99.90;;;;;;4963747;29;20035;-77
2024/01/18 00:54:46;;;;;;;1.52;0.30;;;10.40;99.90;;;;;;4946786;29;20285;-77
2024/01/18 01:00:35;;;;;;;1.15;0.47;;;10.40;99.90;;;;;;4945746;29;20034;-76
2024/01/18 01:03:29;;;;;;;0.65;0.30;;;10.40;99.90;;;;;;4975736;28;20031;-76
2024/01/18 01:06:31;;;;;;;1.52;0.30;;;10.30;99.90;;;;;;4979975;28;20031;-76
2024/01/18 01:09:07;;;;;;;0.88;0.22;;;10.30;99.90;;;;;;4967362;28;20098;-75
2024/01/18 01:12:09;;;;;;;1.52;0.43;;;10.30;99.90;;;;;;4982055;28;20230;-76
2024/01/18 01:14:41;;;;;;;1.10;0.32;;;10.30;99.90;;;;;;4986351;28;20055;-78
2024/01/18 01:17:19;;;;;;;1.05;0.38;;;10.30;99.90;;;;;;4986553;28;20042;-76
2024/01/18 01:19:48;;;;;;;1.30;0.50;;;10.30;99.90;;;;;;4971143;28;20361;-77
2024/01/18 01:22:29;;;;;;;1.20;0.20;;;10.20;99.90;;;;;;4966253;29;20328;-77
2024/01/18 01:25:22;;;;;;;0.85;0.30;;;10.20;99.90;;;;;;4966339;29;20023;-76
2024/01/18 01:27:51;;;;;;;0.82;0.30;;;10.10;99.90;;;;;;4976642;28;20070;-75
2024/01/18 01:33:49;;;;;;;1.10;0.30;;;10.10;99.90;;;;;;4984956;28;20034;-77
2024/01/18 01:36:26;;;;;;;2.53;0.50;;;10.10;99.90;;;;;;4985595;28;20197;-77
2024/01/18 01:39:04;;;;;;;1.58;0.30;;;10.10;99.90;;;;;;4980572;28;20117;-76
2024/01/18 01:41:30;;;;;;;1.38;0.30;;;10.10;99.90;;;;;;4968121;28;20058;-76
2024/01/18 01:44:27;;;;;;;1.08;0.32;;;10.10;99.90;;;;;;4984266;28;20085;-78
2024/01/18 01:47:00;;;;;;;1.15;0.40;;;10.00;99.90;;;;;;4983393;28;20082;-75
2024/01/18 01:49:43;;;;;;;1.10;0.30;;;10.00;99.90;;;;;;4982405;28;20057;-76
2024/01/18 01:52:43;;;;;;;2.30;0.55;;;10.00;99.90;;;;;;4968675;28;20061;-76
2024/01/18 01:55:20;;;;;;;1.35;0.28;;;10.00;99.90;;;;;;4985601;28;20081;-77
2024/01/18 01:58:23;;;;;;;;;;;;;;;;;;;;;
2024/01/18 02:01:12;;;;;;;1.27;0.20;;;10.10;99.90;;;;;;4985708;28;20228;-77
2024/01/18 02:07:19;;;;;;;1.33;0.30;;;10.10;99.90;;;;;;4966010;29;20043;-76
2024/01/18 02:10:10;;;;;;;;;;;;;;;;;;;;;
2024/01/18 02:13:04;;;;;;;;;;;;;;;;;;;;;
2024/01/18 02:18:39;;;;;;;0.90;0.30;;;10.00;99.90;;;;;;4943388;29;20054;-77
2024/01/18 02:21:11;;;;;;;1.23;0.40;;;9.90;99.90;;;;;;4970364;28;20038;-76
2024/01/18 02:24:33;;;;;;;1.67;0.30;;;10.00;99.90;;;;;;4964882;28;20043;-77
2024/01/18 02:27:00;;;;;;;1.00;0.30;;;10.10;99.90;;;;;;4916047;29;20035;-75
2024/01/18 02:29:41;;;;;;;2.15;0.40;;;10.10;99.90;;;;;;4965880;29;20039;-76
2024/01/18 02:32:38;;;;;;;1.30;0.32;;;10.10;99.90;;;;;;4948107;29;20353;-76
2024/01/18 02:35:40;;;;;;;1.15;0.30;;;10.20;99.90;;;;;;4932555;29;20620;-76
2024/01/18 02:38:19;;;;;;;0.90;0.30;;;10.20;99.90;;;;;;4938478;29;20058;-76
2024/01/18 02:41:13;;;;;;;0.82;0.30;;;10.30;99.90;;;;;;4951758;29;20030;-75
2024/01/18 02:44:04;;;;;;;1.10;0.30;;;10.30;99.90;;;;;;4947973;29;20107;-76
2024/01/18 02:46:33;;;;;;;1.05;0.30;;;10.30;99.90;;;;;;4965006;29;20039;-76
2024/01/18 02:49:53;;;;;;;1.17;0.40;;;10.40;99.90;;;;;;4951621;29;20046;-76
2024/01/18 02:52:19;;;;;;;1.30;0.22;;;10.30;99.90;;;;;;4906427;29;20194;-75
2024/01/18 02:55:18;;;;;;;1.52;0.30;;;10.30;99.90;;;;;;4966575;28;20034;-76
2024/01/18 03:01:09;;;;;;;0.73;0.20;;;10.30;99.90;;;;;;4951964;28;20050;-76
2024/01/18 03:04:42;;;;;;;1.13;0.40;;;10.20;99.90;;;;;;4971018;28;20046;-77
2024/01/18 03:08:03;;;;;;;0.80;0.27;;;10.10;99.90;;;;;;4984366;28;20047;-77
2024/01/18 03:11:12;;;;;;;2.65;0.65;;;10.10;99.90;;;;;;4943522;29;20475;-77
2024/01/18 03:13:58;;;;;;;1.67;0.40;;;10.00;99.90;;;;;;4859016;29;20036;-73
2024/01/18 03:16:23;;;;;;;1.98;0.40;;;9.90;99.90;;;;;;4956554;29;20062;-76
2024/01/18 03:18:55;;;;;;;1.48;0.38;;;9.90;99.90;;;;;;4964425;29;20035;-77
2024/01/18 03:21:40;;;;;;;1.17;0.35;;;9.80;99.90;;;;;;4963854;29;20038;-77
2024/01/18 03:24:14;;;;;;;2.20;0.43;;;9.70;99.90;;;;;;4963695;29;20035;-74
2024/01/18 03:34:23;;;;;;;1.20;0.35;;;9.50;99.90;;;;;;4962058;29;20035;-76
2024/01/18 03:36:53;;;;;;;1.65;0.30;;;9.50;99.90;;;;;;4904910;29;20323;-76
2024/01/18 03:39:40;;;;;;;;;;;9.50;99.90;;;;;;4967433;28;20038;-76
2024/01/18 03:42:14;;;;;;;2.30;1.00;;;9.50;99.90;;;;;;4983769;28;19913;-75
2024/01/18 03:44:49;;;;;;;4.03;2.05;;;9.40;99.90;;;;;;4983264;28;20292;-76
2024/01/18 03:47:17;;;;;;;6.18;3.60;;;9.20;99.90;;;;;;4967602;28;20039;-77
2024/01/18 03:49:45;;;;;;;6.13;4.47;;;8.90;99.90;;;;;;4963963;29;20112;-77
2024/01/18 03:52:41;;;;;;;;;;;8.70;99.90;;;;;;4964616;29;20102;-75
2024/01/18 03:55:37;;;;;;;5.82;4.47;;;8.50;99.90;;;;;;4955401;29;19913;-77
2024/01/18 04:01:16;;;;;;;6.63;5.00;;;8.30;99.90;;;;;;4961970;29;20090;-76
2024/01/18 04:06:54;;;;;;;6.53;4.95;;;8.10;99.90;;;;;;4982611;28;20062;-75
2024/01/18 04:09:20;;;;;;;7.05;5.32;;;7.90;99.90;;;;;;4982422;28;20038;-76
2024/01/18 04:11:58;;;;;;;8.25;5.28;;;7.90;99.90;;;;;;4982800;28;20038;-75
2024/01/18 04:14:28;;;;;;;7.10;5.30;;;7.80;99.90;;;;;;4966240;28;20371;-75
2024/01/18 04:17:01;;;;;;;6.90;4.90;;;7.80;99.90;;;;;;4982041;28;20057;-76
2024/01/18 04:19:27;;;;;;;6.70;5.00;;;7.80;99.90;;;;;;4982190;28;20078;-76
2024/01/18 04:22:01;;;;;;;7.55;4.93;;;7.80;99.90;;;;;;4965987;28;20031;-76
2024/01/18 04:24:27;;;;;;;7.40;4.65;;;7.70;99.90;;;;;;4963778;29;20349;-76
2024/01/18 04:27:46;;;;;;;6.88;4.70;;;7.60;99.90;;;;;;4964280;29;20039;-76
2024/01/18 04:30:15;;;;;;;6.72;4.40;;;7.60;99.90;;;;;;4946873;29;20174;-77
2024/01/18 04:37:36;;;;;;;6.35;4.60;;;7.50;99.90;;;;;;4884500;29;20085;-77
2024/01/18 04:40:33;;;;;;;6.82;4.63;;;7.40;99.90;;;;;;4863988;29;20038;-76
2024/01/18 04:43:32;;;;;;;5.43;4.15;;;7.30;99.90;;;;;;4885937;29;20059;-76
2024/01/18 04:45:58;;;;;;;6.78;4.60;;;7.20;99.90;;;;;;4889061;29;20033;-77
2024/01/18 04:48:44;;;;;;;6.28;4.53;;;7.10;99.90;;;;;;4906862;29;20267;-77
2024/01/18 04:51:28;;;;;;;7.22;4.82;;;7.00;99.90;;;;;;4908792;29;20057;-77
2024/01/18 04:57:45;;;;;;;6.18;4.68;;;7.00;99.90;;;;;;4906431;29;20104;-77
2024/01/18 05:04:20;;;;;;;7.20;4.85;;;7.00;99.90;;;;;;4834028;29;20045;-77
2024/01/18 05:06:48;;;;;;;5.93;4.70;;;7.00;99.90;;;;;;4860896;29;20240;-76
2024/01/18 05:12:58;;;;;;;7.72;5.28;;;7.00;99.90;;;;;;4832640;29;20405;-76
2024/01/18 05:15:47;;;;;;;7.45;5.55;;;7.00;99.90;;;;;;4803748;29;20098;-77
2024/01/18 05:18:35;;;;;;;7.82;5.68;;;6.90;99.90;;;;;;4834181;29;20057;-77
2024/01/18 05:21:24;;;;;;;7.15;5.68;;;6.90;99.90;;;;;;4899827;29;20060;-77
2024/01/18 05:23:49;;;;;;;8.18;6.10;;;6.90;99.90;;;;;;4919851;29;20152;-76
2024/01/18 05:26:15;;;;;;;9.35;6.88;;;6.90;99.90;;;;;;4926766;29;20231;-77
2024/01/18 05:29:30;;;;;;;7.80;6.38;;;6.90;99.90;;;;;;4926615;29;20200;-77
2024/01/18 05:32:21;;;;;;;8.52;6.55;;;6.80;99.90;;;;;;4941690;29;20047;-76
2024/01/18 05:35:22;;;;;;;9.13;6.30;;;6.70;99.90;;;;;;4933040;28;20087;-76
2024/01/18 05:37:49;;;;;;;10.43;6.63;;;6.70;99.90;;;;;;4948115;28;20050;-77
2024/01/18 05:40:14;;;;;;;11.57;7.20;;;6.60;99.90;;;;;;4986125;28;20077;-77
2024/01/18 05:42:46;;;;;;;8.73;6.63;;;6.60;99.90;;;;;;4985875;28;20022;-76
2024/01/18 05:45:21;;;;;;;8.95;6.53;;;6.50;99.90;;;;;;4969465;28;20209;-78
2024/01/18 05:51:01;;;;;;;10.10;7.00;;;6.60;99.90;;;;;;4946020;29;20027;-77
2024/01/18 05:53:32;;;;;;;8.35;6.38;;;6.60;99.90;;;;;;4966800;29;20039;-76
2024/01/18 05:56:04;;;;;;;7.68;6.07;;;6.50;99.90;;;;;;4948476;29;20109;-77
2024/01/18 05:58:32;;;;;;;9.52;6.38;;;6.50;99.90;;;;;;4948306;28;20035;-77
2024/01/18 06:01:00;;;;;;;8.07;5.68;;;6.40;99.90;;;;;;4962229;29;20098;-75
2024/01/18 06:03:38;;;;;;;8.93;6.15;;;6.40;99.90;;;;;;4965619;29;20023;-77
2024/01/18 06:06:04;;;;;;;8.32;6.35;;;6.30;99.90;;;;;;4973675;28;20057;-76
2024/01/18 06:08:30;;;;;;;8.45;5.68;;;6.20;99.90;;;;;;4984957;28;20031;-74
2024/01/18 06:10:55;;;;;;;6.82;4.32;;;6.20;99.90;;;;;;4985357;28;20061;-75
2024/01/18 06:13:22;;;;;;;7.10;4.60;;;6.10;99.90;;;;;;4968219;28;20035;-74
2024/01/18 06:15:53;;;;;;;5.28;3.63;;;5.90;99.90;;;;;;4983601;28;20386;-74
2024/01/18 06:18:22;;;;;;;5.00;2.78;;;5.80;99.90;;;;;;4984397;28;20047;-74
2024/01/18 06:20:56;;;;;;;4.30;2.53;;;5.60;99.90;;;;;;4984497;28;20255;-75
2024/01/18 06:23:22;;;;;;;2.72;1.98;;;5.30;99.90;;;;;;4970881;28;20027;-74
2024/01/18 06:25:50;;;;;;;2.80;1.80;;;5.00;99.90;;;;;;4965114;29;20054;-74
2024/01/18 06:28:22;;;;;;;2.80;1.90;;;4.90;99.90;;;;;;4965554;29;20055;-74
2024/01/18 06:30:52;;;;;;;2.90;1.70;;;4.70;99.90;;;;;;4932419;29;20039;-75
2024/01/18 06:33:21;;;;;;;3.10;1.58;;;4.60;99.90;;;;;;4965438;29;20089;-76
2024/01/18 06:35:49;;;;;;;2.40;1.70;;;4.40;99.90;;;;;;4965024;29;20058;-75
2024/01/18 06:38:20;;;;;;;2.90;1.90;;;4.40;99.90;;;;;;4972909;28;20054;-74
2024/01/18 06:40:49;;;;;;;3.55;1.55;;;4.40;99.90;;;;;;4967104;28;20038;-73
2024/01/18 06:43:18;;;;;;;3.13;1.80;;;4.30;99.90;;;;;;4983624;28;20037;-75
2024/01/18 06:45:44;;;;;;;3.65;1.52;;;4.30;99.90;;;;;;4983122;28;20034;-75
2024/01/18 06:48:10;;;;;;;3.03;1.58;;;4.20;99.90;;;;;;4983765;28;20019;-74
2024/01/18 06:50:39;;;;;;;3.45;2.00;;;4.20;99.90;;;;;;4982751;28;20104;-74
2024/01/18 06:53:09;;;;;;;3.45;1.83;;;4.20;99.90;;;;;;4984718;28;20106;-73
2024/01/18 06:55:34;;;;;;;3.10;1.80;;;4.20;99.90;;;;;;4981040;28;20023;-76
2024/01/18 06:58:02;;;;;;;2.65;1.65;;;4.10;99.90;;;;;;4984545;28;20057;-73
2024/01/18 07:00:32;;;;;;;2.92;1.83;;;4.10;99.90;;;;;;4982721;28;20045;-75
2024/01/18 07:02:59;;;;;;;2.17;1.48;;;4.10;99.90;;;;;;4983486;28;20073;-74
2024/01/18 07:05:25;;;;;;;2.30;1.38;;;4.10;99.90;;;;;;4983077;28;20038;-73
2024/01/18 07:07:51;;;;;;;2.15;1.42;;;4.10;99.90;;;;;;4983633;28;20047;-75
2024/01/18 07:10:23;;;;;;;2.20;1.30;;;4.00;99.90;;;;;;4982993;28;20031;-75
2024/01/18 07:12:50;;;;;;;3.35;1.88;;;3.90;99.90;;;;;;4982522;28;20023;-73
2024/01/18 07:15:22;;;;;;;3.22;1.90;;;4.00;99.90;;;;;;4970113;28;20050;-74
2024/01/18 07:17:48;;;;;;;2.63;1.70;;;4.00;99.90;;;;;;4963032;29;20039;-73
2024/01/18 07:20:16;;;;;;;4.93;1.77;;;4.00;99.90;;;;;;4964435;29;20058;-73
2024/01/18 07:22:42;;;;;;;3.42;1.67;;;4.00;99.90;;;;;;4946859;29;20365;-74
2024/01/18 07:25:08;;;;;;;3.78;1.85;;;4.00;99.90;;;;;;4964772;29;20034;-74
2024/01/18 07:27:34;;;;;;;2.30;1.55;;;3.90;99.90;;;;;;4964689;28;20066;-78
2024/01/18 07:30:09;;;;;;;2.65;1.50;;;3.90;99.90;;;;;;4950247;28;20037;-73
2024/01/18 07:32:38;;;;;;;3.25;1.98;;;3.90;99.90;;;;;;4975977;28;20035;-73
2024/01/18 07:35:08;;;;;;;2.70;1.50;;;4.00;99.90;;;;;;4990452;28;20121;-77
2024/01/18 07:37:34;;;;;;;3.28;1.60;;;4.00;99.90;;;;;;4985175;28;20041;-76
2024/01/18 07:40:00;;;;;;;3.58;1.80;;;4.00;99.90;;;;;;5003115;28;20216;-76
2024/01/18 07:42:25;;;;;;;3.42;1.58;;;4.00;99.90;;;;;;5003259;28;20046;-75
2024/01/18 07:44:52;;;;;;;2.65;1.60;;;4.10;99.90;;;;;;5002741;28;20022;-79
2024/01/18 07:47:21;;;;;;;2.70;1.60;;;4.10;99.90;;;;;;4971457;28;20109;-78
2024/01/18 07:49:47;;;;;;;2.92;1.60;;;4.20;99.90;;;;;;4980474;28;20325;-77
2024/01/18 07:52:14;;;;;;;2.50;1.48;;;4.20;99.90;;;;;;4964290;29;20027;-76
2024/01/18 07:54:43;;;;;;;2.80;1.70;;;4.20;99.90;;;;;;4962554;29;20034;-72
2024/01/18 07:57:21;;;;;;;2.92;1.70;;;4.10;99.90;;;;;;4964199;29;20138;-73
2024/01/18 07:59:47;;;;;;;3.20;1.90;;;4.00;99.90;;;;;;4963740;29;20302;-72
2024/01/18 08:02:21;;;;;;;3.20;2.10;;;4.00;99.90;;;;;;4947357;29;20074;-72
2024/01/18 08:04:47;;;;;;;3.40;2.00;;;4.10;99.90;;;;;;4963634;29;20644;-74
2024/01/18 08:07:16;;;;;;;3.67;1.90;;;4.20;99.90;;;;;;4965164;28;20118;-73
2024/01/18 08:09:45;;;;;;;4.00;2.00;;;4.10;99.90;;;;;;4966113;28;20310;-73
2024/01/18 08:12:11;;;;;;;3.20;2.10;;;4.10;99.90;;;;;;4964085;29;20046;-72
2024/01/18 08:14:41;;;;;;;3.30;1.92;;;4.10;99.90;;;;;;4958236;29;20035;-74
2024/01/18 08:17:07;;;;;;;3.08;1.65;;;4.20;99.90;;;;;;4962801;29;20318;-72
2024/01/18 08:19:33;;;;;;;3.25;1.88;;;4.20;99.90;;;;;;4963444;29;20041;-73
2024/01/18 08:21:59;;;;;;;2.88;1.83;;;4.10;99.90;;;;;;4962174;29;20043;-73
2024/01/18 08:24:25;;;;;;;3.50;2.28;;;4.20;99.90;;;;;;4980492;28;20339;-73
2024/01/18 08:26:52;;;;;;;3.13;2.10;;;4.10;99.90;;;;;;4982269;28;20026;-73
2024/01/18 08:29:21;;;;;;;5.93;1.85;;;4.00;99.90;;;;;;4983139;28;20030;-73
2024/01/18 08:31:47;;;;;;;3.33;2.00;;;3.90;99.90;;;;;;4982374;28;20033;-75
2024/01/18 08:34:13;;;;;;;3.42;2.08;;;3.90;99.90;;;;;;4983099;28;20026;-73
2024/01/18 08:36:39;;;;;;;3.72;2.22;;;3.80;99.90;;;;;;4982164;28;20323;-74
2024/01/18 08:39:04;;;;;;;3.72;2.10;;;3.70;99.90;;;;;;4983108;28;20027;-73
2024/01/18 08:42:07;;;;;;;2.70;1.73;;;3.60;99.90;;;;;;4972686;28;20027;-79
2024/01/18 08:44:48;;;;;;;3.20;1.70;;;3.60;99.90;;;;;;4960196;28;20062;-77
2024/01/18 08:47:29;;;;;;;4.53;1.90;;;3.50;99.90;;;;;;4950964;28;20027;-79
2024/01/18 08:50:06;;;;;;;2.85;1.38;;;3.40;99.90;;;;;;4967662;28;20027;-78
2024/01/18 08:52:51;;;;;;;3.45;2.00;;;3.30;99.90;;;;;;4952599;29;20053;-77
2024/01/18 08:55:45;;;;;;;3.67;2.15;;;3.20;99.90;;;;;;4970957;28;20043;-77
2024/01/18 08:58:14;;;;;;;3.80;2.30;;;3.20;99.90;;;;;;4972616;28;20106;-77
2024/01/18 09:01:27;;;;;;;3.50;1.88;;;3.20;99.90;;;;;;4974088;28;20035;-79
2024/01/18 09:03:56;;;;;;;3.10;2.03;;;3.20;99.90;;;;;;4984889;28;20038;-74
2024/01/18 09:06:22;;;;;;;3.03;1.95;;;3.20;99.90;;;;;;4981296;28;20051;-72
2024/01/18 09:08:47;;;;;;;3.25;2.08;;;3.20;99.90;;;;;;4965330;28;20034;-72
2024/01/18 09:11:16;;;;;;;3.90;2.10;;;3.20;99.90;;;;;;4983505;28;20039;-78
2024/01/18 09:13:45;;;;;;;3.33;2.03;;;3.20;99.90;;;;;;4977544;28;20032;-80
2024/01/18 09:16:20;;;;;;;3.40;1.90;;;3.20;99.90;;;;;;4962691;28;20019;-79
2024/01/18 09:18:45;;;;;;;4.82;2.63;;;3.20;99.90;;;;;;4959000;29;20070;-79
2024/01/18 09:21:12;;;;;;;3.80;2.40;;;3.10;99.90;;;;;;4962668;28;20278;-78
2024/01/18 09:23:59;;;;;;;3.70;2.15;;;3.10;99.90;;;;;;4959166;28;20051;-76
2024/01/18 09:26:25;;;;;;;3.72;2.13;;;3.10;99.90;;;;;;4961624;28;20040;-77
2024/01/18 09:28:50;;;;;;;3.67;2.30;;;3.10;99.90;;;;;;4980836;28;20186;-75
2024/01/18 09:31:16;;;;;;;3.58;1.88;;;3.10;99.90;;;;;;4970889;28;20054;-76
2024/01/18 09:33:42;;;;;;;3.25;1.75;;;3.10;99.90;;;;;;4981987;28;20027;-75
2024/01/18 09:36:07;;;;;;;3.53;1.90;;;3.10;99.90;;;;;;4985831;28;20045;-76
2024/01/18 09:38:34;;;;;;;3.67;2.20;;;3.00;99.90;;;;;;4985327;28;20031;-77
2024/01/18 09:41:04;;;;;;;3.58;1.60;;;2.90;99.90;;;;;;4975800;28;20039;-75
2024/01/18 09:43:40;;;;;;;3.00;1.55;;;2.80;99.90;;;;;;4965448;29;20074;-75
2024/01/18 09:46:07;;;;;;;2.92;1.50;;;2.80;99.90;;;;;;4953794;28;20035;-73
2024/01/18 09:48:39;;;;;;;1.90;1.10;;;2.90;99.90;;;;;;4981084;28;20077;-72
2024/01/18 09:51:18;;;;;;;2.50;1.30;;;2.90;99.90;;;;;;4985590;28;20042;-74
2024/01/18 09:53:48;;;;;;;2.70;1.30;;;2.80;99.90;;;;;;4985103;28;20042;-72
2024/01/18 09:56:25;;;;;;;2.67;1.40;;;2.60;99.90;;;;;;4967289;28;20356;-72
2024/01/18 09:58:52;;;;;;;2.97;1.35;;;2.60;99.90;;;;;;4982133;28;20093;-72
2024/01/18 10:01:23;;;;;;;3.80;1.60;;;2.60;99.90;;;;;;4985226;28;20035;-71
2024/01/18 10:03:53;;;;;;;2.47;1.25;;;2.50;99.90;;;;;;4984575;28;20210;-72
2024/01/18 10:06:19;;;;;;;1.95;1.08;;;2.50;99.90;;;;;;4984886;28;20078;-74
2024/01/18 10:09:14;;;;;;;2.80;1.50;;;2.50;99.90;;;;;;4984509;28;20042;-75
2024/01/18 10:11:46;;;;;;;2.97;1.33;;;2.50;99.90;;;;;;4984329;28;20102;-74
2024/01/18 10:14:44;;;;;;;3.42;1.40;;;2.50;99.90;;;;;;4971580;28;20174;-76
2024/01/18 10:17:32;;;;;;;3.25;1.38;;;2.50;99.90;;;;;;4965907;28;20277;-76
2024/01/18 10:20:16;;;;;;;;;;;2.40;99.90;;;;;;4985902;28;20093;-76
2024/01/18 10:22:54;;;;;;;2.95;1.42;;;2.40;99.90;;;;;;4967516;28;19940;-75
2024/01/18 10:25:44;;;;;;;2.90;1.65;;;2.30;99.90;;;;;;4968328;28;20047;-77
2024/01/18 10:28:11;;;;;;;4.00;1.42;;;2.20;99.90;;;;;;4984686;28;20047;-76
2024/01/18 10:30:37;;;;;;;3.63;1.58;;;2.10;99.90;;;;;;4971666;28;20329;-79
2024/01/18 10:33:03;;;;;;;2.63;1.42;;;2.10;99.90;;;;;;4956843;28;20014;-73
2024/01/18 10:35:29;;;;;;;3.03;1.40;;;1.90;99.90;;;;;;4984163;28;20027;-75
2024/01/18 10:38:06;;;;;;;3.95;1.75;;;1.90;99.90;;;;;;4984809;28;20018;-75
2024/01/18 10:40:38;;;;;;;3.25;1.73;;;1.80;99.90;;;;;;4984313;28;20046;-76
2024/01/18 10:43:05;;;;;;;3.50;1.92;;;1.70;99.90;;;;;;4985048;28;20031;-75
2024/01/18 10:45:33;;;;;;;3.70;2.15;;;1.70;99.90;;;;;;4966743;28;20094;-77
2024/01/18 10:47:59;;;;;;;3.13;1.70;;;1.80;99.90;;;;;;4967100;28;20053;-76
2024/01/18 10:50:28;;;;;;;3.92;1.77;;;1.80;99.90;;;;;;4984930;28;20043;-74
2024/01/18 10:52:55;;;;;;;3.80;1.95;;;1.90;99.90;;;;;;4984851;28;20031;-75
2024/01/18 10:55:21;;;;;;;4.03;2.07;;;1.90;99.90;;;;;;4984465;28;20046;-74
2024/01/18 10:57:47;;;;;;;3.42;2.00;;;2.00;99.90;;;;;;4984128;28;20421;-75
2024/01/18 11:00:16;;;;;;;4.60;2.33;;;2.00;99.90;;;;;;4984016;28;20031;-75
2024/01/18 11:02:44;;;;;;;4.07;2.60;;;2.00;99.90;;;;;;4983803;28;20384;-74
2024/01/18 11:05:13;;;;;;;4.18;2.75;;;2.10;99.90;;;;;;4950527;28;20301;-74
2024/01/18 11:07:51;;;;;;;5.22;2.65;;;2.10;99.90;;;;;;4983126;28;20053;-75
2024/01/18 11:10:16;;;;;;;;;;;2.10;99.90;;;;;;4985004;28;20058;-75
2024/01/18 11:12:45;;;;;;;4.80;2.80;;;2.20;99.90;;;;;;4966418;28;19914;-74
2024/01/18 11:15:12;;;;;;;4.32;2.80;;;2.20;99.90;;;;;;4983912;28;20022;-74
2024/01/18 11:17:50;;;;;;;5.78;2.60;;;2.20;99.90;;;;;;4983381;28;20034;-74
2024/01/18 11:20:16;;;;;;;3.80;2.63;;;2.30;99.90;;;;;;4966743;28;20042;-72
2024/01/18 11:22:45;;;;;;;5.75;2.58;;;2.30;99.90;;;;;;4981481;28;20329;-75
2024/01/18 11:25:17;;;;;;;3.30;1.90;;;2.30;99.90;;;;;;4967965;28;20027;-76
2024/01/18 11:28:03;;;;;;;2.65;1.50;;;2.20;99.90;;;;;;4966052;28;20213;-75
2024/01/18 11:30:37;;;;;;;3.67;2.30;;;2.20;99.90;;;;;;4983112;28;20055;-75
2024/01/18 11:33:06;;;;;;;3.30;1.88;;;2.10;99.90;;;;;;4966569;28;20026;-75
2024/01/18 11:35:33;;;;;;;3.60;1.90;;;2.00;99.90;;;;;;4982970;28;20348;-76
2024/01/18 11:38:40;;;;;;;4.38;2.38;;;1.90;99.90;;;;;;4966450;28;20220;-80
2024/01/18 11:41:24;;;;;;;4.18;2.67;;;1.90;99.90;;;;;;4964396;29;20023;-73
2024/01/18 11:43:57;;;;;;;4.10;2.53;;;1.80;99.90;;;;;;4946684;29;20031;-73
2024/01/18 11:46:46;;;;;;;4.45;2.92;;;1.80;99.90;;;;;;4963299;29;20046;-74
2024/01/18 11:49:13;;;;;;;4.15;2.50;;;1.80;99.90;;;;;;4963175;29;20429;-75
2024/01/18 11:51:41;;;;;;;;;;;1.70;99.90;;;;;;4962967;29;20034;-75
2024/01/18 11:54:12;;;;;;;6.13;3.30;;;1.70;99.90;;;;;;4964031;28;19921;-76
2024/01/18 11:57:12;;;;;;;5.20;3.22;;;1.70;99.90;;;;;;4966384;28;20062;-75
2024/01/18 12:00:07;;;;;;;4.85;2.75;;;1.70;99.90;;;;;;4978292;28;20030;-78
2024/01/18 12:02:51;;;;;;;;;;;1.70;99.90;;;;;;4969469;28;20085;-79
2024/01/18 12:05:17;;;;;;;6.03;3.00;;;1.70;99.90;;;;;;4966090;28;19910;-77
2024/01/18 12:07:45;;;;;;;4.97;2.80;;;1.70;99.90;;;;;;4982815;28;20104;-76
2024/01/18 12:10:32;;;;;;;4.00;2.70;;;1.70;99.90;;;;;;4981652;28;20034;-77
2024/01/18 12:13:22;;;;;;;4.97;3.35;;;1.70;99.90;;;;;;4947443;29;20046;-79
2024/01/18 12:16:00;;;;;;;3.65;2.45;;;1.70;99.90;;;;;;4946714;29;20366;-80
2024/01/18 12:18:25;;;;;;;;;;;1.80;99.90;;;;;;4964920;29;20031;-77
2024/01/18 12:21:04;;;;;;;4.60;3.50;;;1.70;99.90;;;;;;4964005;29;19982;-78
2024/01/18 12:23:30;;;;;;;6.03;3.47;;;1.70;99.90;;;;;;4957007;28;20039;-77
2024/01/18 12:26:03;;;;;;;5.63;3.83;;;1.60;99.90;;;;;;4983534;28;20057;-77
2024/01/18 12:28:35;;;;;;;6.65;4.25;;;1.50;99.90;;;;;;4968532;28;20019;-80
2024/01/18 12:31:13;;;;;;;5.88;3.95;;;1.40;99.90;;;;;;4946818;29;20082;-76
2024/01/18 12:34:27;;;;;;;6.10;4.22;;;1.30;99.90;;;;;;4970016;28;20138;-79
2024/01/18 12:37:02;;;;;;;8.13;4.70;;;1.30;99.90;;;;;;4980714;28;20186;-78
2024/01/18 12:39:33;;;;;;;7.20;4.38;;;1.30;99.90;;;;;;4965496;28;20045;-81
2024/01/18 12:42:08;;;;;;;5.97;4.13;;;1.20;99.90;;;;;;4951611;28;20031;-77
2024/01/18 12:44:43;;;;;;;6.22;4.47;;;1.10;99.90;;;;;;4965099;28;20039;-76
2024/01/18 12:47:12;;;;;;;8.35;5.10;;;1.10;99.90;;;;;;4965819;28;20090;-79
2024/01/18 12:49:41;;;;;;;7.03;4.60;;;1.20;99.90;;;;;;4965640;28;20034;-80
2024/01/18 12:52:10;;;;;;;6.30;4.50;;;1.20;99.90;;;;;;4982893;28;20105;-79
2024/01/18 12:55:09;;;;;;;7.45;4.82;;;1.20;99.90;;;;;;4982004;28;20193;-78
2024/01/18 12:57:38;;;;;;;8.10;5.28;;;1.20;99.90;;;;;;4962340;29;20031;-78
2024/01/18 13:00:09;;;;;;;8.02;5.43;;;1.20;99.90;;;;;;4962517;28;20026;-80
2024/01/18 13:02:56;;;;;;;9.85;5.25;;;1.20;99.90;;;;;;4962708;29;20023;-80
2024/01/18 13:05:28;;;;;;;7.97;5.35;;;1.20;99.90;;;;;;4964198;29;20089;-78
2024/01/18 13:07:56;;;;;;;8.52;5.55;;;1.20;99.90;;;;;;4967105;28;20246;-79
2024/01/18 13:10:30;;;;;;;6.53;5.03;;;1.20;99.90;;;;;;4952387;29;20031;-79
2024/01/18 13:13:06;;;;;;;9.00;6.20;;;1.20;99.90;;;;;;4970731;29;20314;-79
2024/01/18 13:15:40;;;;;;;8.35;6.05;;;1.20;99.90;;;;;;4974196;29;20042;-79
2024/01/18 13:18:10;;;;;;;9.25;5.38;;;1.20;99.90;;;;;;4963713;28;20035;-78
2024/01/18 13:21:04;;;;;;;7.18;5.25;;;1.20;99.90;;;;;;4978254;29;20044;-79
2024/01/18 13:23:59;;;;;;;8.35;5.85;;;1.20;99.90;;;;;;4981427;28;20321;-79
2024/01/18 13:26:25;;;;;;;9.25;5.97;;;1.10;99.90;;;;;;4908019;29;20033;-79
2024/01/18 13:28:55;;;;;;;9.48;5.60;;;1.00;99.90;;;;;;4963151;28;20347;-79
2024/01/18 13:31:20;;;;;;;10.23;6.07;;;1.10;99.90;;;;;;4986585;28;20049;-76
2024/01/18 13:33:49;;;;;;;9.43;6.40;;;1.10;99.90;;;;;;4968718;28;20031;-78
2024/01/18 13:36:15;;;;;;;9.43;6.10;;;1.10;99.90;;;;;;4952569;28;20037;-75
2024/01/18 13:38:44;;;;;;;9.68;6.20;;;1.10;99.90;;;;;;4968086;28;20086;-75
2024/01/18 13:41:10;;;;;;;9.77;5.93;;;1.20;99.90;;;;;;4984896;28;20241;-75
2024/01/18 13:43:45;;;;;;;9.10;6.07;;;1.10;99.90;;;;;;4968426;28;20034;-75
2024/01/18 13:46:20;;;;;;;10.18;6.78;;;1.10;99.90;;;;;;4968581;28;20035;-74
2024/01/18 13:48:47;;;;;;;9.75;6.80;;;1.10;99.90;;;;;;4983756;28;20039;-75
2024/01/18 13:51:15;;;;;;;10.93;7.05;;;1.10;99.90;;;;;;4961196;29;20077;-74
2024/01/18 13:53:41;;;;;;;10.13;6.68;;;1.00;99.90;;;;;;4965973;29;20019;-77
2024/01/18 13:56:18;;;;;;;9.75;6.97;;;1.10;99.90;;;;;;4965847;29;20027;-79
2024/01/18 13:58:44;;;;;;;9.83;6.73;;;1.10;99.90;;;;;;4949592;29;20079;-74
2024/01/18 14:01:13;;;;;;;11.05;7.20;;;1.00;99.90;;;;;;4965383;29;20047;-77
2024/01/18 14:03:44;;;;;;;10.35;6.68;;;1.00;99.90;;;;;;4948529;29;20061;-77
2024/01/18 14:06:25;;;;;;;11.73;7.70;;;1.00;99.90;;;;;;4966567;29;20123;-77
2024/01/18 14:09:13;;;;;;;11.90;7.50;;;1.10;99.90;;;;;;4968545;28;20063;-78
2024/01/18 14:11:39;;;;;;;11.00;8.30;;;1.00;99.90;;;;;;4964453;29;20050;-78
2024/01/18 14:14:11;;;;;;;11.32;7.93;;;0.90;99.90;;;;;;4964883;29;20032;-77
2024/01/18 14:16:40;;;;;;;11.90;7.40;;;0.90;99.90;;;;;;4964133;29;20245;-74
2024/01/18 14:19:07;;;;;;;13.43;8.63;;;0.80;99.90;;;;;;4965024;29;20043;-76
2024/01/18 14:21:33;;;;;;;12.07;7.97;;;0.90;99.90;;;;;;4963318;28;20047;-77
2024/01/18 14:23:58;;;;;;;13.68;7.78;;;0.80;99.90;;;;;;4980723;28;20324;-76
2024/01/18 14:26:30;;;;;;;14.02;8.18;;;0.80;99.90;;;;;;4969905;28;20035;-78
2024/01/18 14:32:15;;;;;;;12.40;7.78;;;0.70;99.90;;;;;;4965800;29;20046;-73
2024/01/18 14:34:41;;;;;;;12.02;8.35;;;0.70;99.90;;;;;;4964660;29;20028;-74